Time;durP1;ratioP1;P1;durP2;ratioP2;P2;SDS_P1;SDS_P2;PMS_P1;PMS_P2;Temp;Humidity;BMP_temperature;BMP_pressure;BME280_temperature;BME280_humidity;BME280_pressure;Samples;Min_cycle;Max_cycle;Signal;HPM_P1;HPM_P2
2021/12/11 00:01:10;;;;;;;2.17;0.50;;;;;;;;;;5095365;28;20111;-80
2021/12/11 00:03:41;;;;;;;1.15;0.30;;;;;;;;;;5091554;28;20027;-82
2021/12/11 00:06:08;;;;;;;3.53;0.50;;;;;;;;;;5103690;28;20114;-79
2021/12/11 00:08:34;;;;;;;1.67;0.30;;;;;;;;;;5092933;28;20620;-86
2021/12/11 00:11:04;;;;;;;0.85;0.28;;;;;;;;;;5088518;28;20042;-86
2021/12/11 00:13:31;;;;;;;0.75;0.30;;;;;;;;;;5107360;28;20027;-86
2021/12/11 00:15:59;;;;;;;0.77;0.28;;;;;;;;;;5106974;28;20027;-74
2021/12/11 00:18:27;;;;;;;1.10;0.30;;;;;;;;;;5104910;28;20034;-86
2021/12/11 00:20:53;;;;;;;0.57;0.30;;;;;;;;;;5096073;28;20754;-86
2021/12/11 00:23:22;;;;;;;2.40;0.70;;;;;;;;;;5090005;28;20031;-87
2021/12/11 00:25:48;;;;;;;1.55;0.52;;;;;;;;;;5103691;28;20111;-86
2021/12/11 00:28:14;;;;;;;3.17;0.60;;;;;;;;;;5097994;28;20070;-87
2021/12/11 00:30:43;;;;;;;3.38;0.40;;;;;;;;;;5096503;28;20061;-85
2021/12/11 00:33:17;;;;;;;2.08;0.65;;;;;;;;;;5098329;28;20023;-86
2021/12/11 00:35:44;;;;;;;4.13;0.32;;;;;;;;;;5104225;28;20070;-86
2021/12/11 00:38:12;;;;;;;1.88;0.50;;;;;;;;;;5097507;28;20023;-85
2021/12/11 00:40:39;;;;;;;1.88;0.47;;;;;;;;;;5099712;28;20027;-80
2021/12/11 00:43:06;;;;;;;1.20;0.40;;;;;;;;;;5093621;28;20024;-86
2021/12/11 00:45:35;;;;;;;4.07;0.50;;;;;;;;;;5094585;28;20016;-86
2021/12/11 00:48:04;;;;;;;1.08;0.40;;;;;;;;;;5089122;28;20024;-86
2021/12/11 00:50:42;;;;;;;1.23;0.25;;;;;;;;;;5089010;28;20020;-86
2021/12/11 00:53:13;;;;;;;4.63;0.60;;;;;;;;;;5088025;28;20024;-86
2021/12/11 00:55:43;;;;;;;1.83;0.40;;;;;;;;;;5088071;28;20043;-76
2021/12/11 00:58:11;;;;;;;2.53;0.57;;;;;;;;;;5089083;28;20032;-86
2021/12/11 01:00:46;;;;;;;3.75;0.77;;;;;;;;;;5105502;28;20263;-86
2021/12/11 01:03:15;;;;;;;1.75;0.40;;;;;;;;;;5088439;28;20036;-83
2021/12/11 01:05:44;;;;;;;3.17;0.52;;;;;;;;;;5097735;28;20052;-80
2021/12/11 01:08:19;;;;;;;2.47;0.50;;;;;;;;;;5093287;28;20127;-86
2021/12/11 01:10:46;;;;;;;2.30;0.40;;;;;;;;;;5098188;28;20243;-80
2021/12/11 01:13:17;;;;;;;0.73;0.38;;;;;;;;;;5090653;28;20082;-74
2021/12/11 01:15:55;;;;;;;3.33;0.57;;;;;;;;;;5098417;28;20047;-86
2021/12/11 01:18:23;;;;;;;2.03;0.45;;;;;;;;;;5091727;28;20032;-79
2021/12/11 01:21:02;;;;;;;1.20;0.45;;;;;;;;;;5091898;28;20024;-88
2021/12/11 01:26:00;;;;;;;1.50;0.70;;;;;;;;;;5101337;28;20036;-87
2021/12/11 01:28:27;;;;;;;4.00;0.63;;;;;;;;;;5083144;28;20067;-88
2021/12/11 01:30:53;;;;;;;2.30;0.60;;;;;;;;;;5092324;28;20028;-86
2021/12/11 01:33:20;;;;;;;2.70;1.02;;;;;;;;;;5091206;28;20043;-88
2021/12/11 01:35:46;;;;;;;2.75;0.60;;;;;;;;;;5095625;28;20035;-87
2021/12/11 01:38:21;;;;;;;2.20;0.68;;;;;;;;;;5093334;28;20016;-87
2021/12/11 01:40:49;;;;;;;2.28;0.43;;;;;;;;;;5075587;28;20028;-88
2021/12/11 01:43:16;;;;;;;5.32;0.57;;;;;;;;;;5100953;28;20019;-87
2021/12/11 01:45:44;;;;;;;0.75;0.60;;;;;;;;;;5098812;28;20032;-88
2021/12/11 01:48:10;;;;;;;4.95;0.50;;;;;;;;;;5100831;28;20419;-87
2021/12/11 01:50:39;;;;;;;2.22;0.50;;;;;;;;;;5086158;28;20024;-87
2021/12/11 01:53:05;;;;;;;2.42;0.30;;;;;;;;;;5093352;28;20036;-88
2021/12/11 01:55:40;;;;;;;3.85;0.60;;;;;;;;;;5099500;28;20071;-73
2021/12/11 01:58:09;;;;;;;1.33;0.20;;;;;;;;;;5097448;28;20020;-87
2021/12/11 02:00:46;;;;;;;1.48;0.40;;;;;;;;;;5089236;28;20219;-81
2021/12/11 02:03:18;;;;;;;3.15;0.30;;;;;;;;;;5092515;28;20128;-88
2021/12/11 02:05:45;;;;;;;1.73;0.60;;;;;;;;;;5095211;28;20039;-80
2021/12/11 02:08:14;;;;;;;3.10;0.45;;;;;;;;;;5091577;28;20088;-81
2021/12/11 02:11:01;;;;;;;2.08;0.60;;;;;;;;;;5094996;28;20040;-83
2021/12/11 02:13:41;;;;;;;1.77;0.60;;;;;;;;;;5086239;28;20051;-83
2021/12/11 02:16:14;;;;;;;1.70;0.28;;;;;;;;;;5093509;28;20055;-89
2021/12/11 02:18:45;;;;;;;1.52;0.65;;;;;;;;;;5090512;28;20032;-88
2021/12/11 02:21:26;;;;;;;1.75;0.50;;;;;;;;;;5094898;28;20039;-89
2021/12/11 02:24:06;;;;;;;1.67;0.50;;;;;;;;;;5095169;28;20523;-88
2021/12/11 02:26:34;;;;;;;1.70;0.40;;;;;;;;;;5090664;28;20024;-88
2021/12/11 02:29:07;;;;;;;1.77;0.35;;;;;;;;;;5096883;28;20028;-82
2021/12/11 02:31:56;;;;;;;2.80;0.65;;;;;;;;;;5079471;28;20733;-87
2021/12/11 02:34:36;;;;;;;1.88;0.65;;;;;;;;;;5098977;28;20220;-86
2021/12/11 02:37:11;;;;;;;3.53;0.80;;;;;;;;;;5077076;28;20379;-87
2021/12/11 02:39:45;;;;;;;1.27;0.47;;;;;;;;;;5089884;28;20294;-86
2021/12/11 02:42:19;;;;;;;2.40;0.30;;;;;;;;;;5088605;28;20027;-86
2021/12/11 02:44:52;;;;;;;1.38;0.30;;;;;;;;;;5084624;28;20047;-86
2021/12/11 02:47:22;;;;;;;1.85;0.35;;;;;;;;;;5102246;28;20035;-87
2021/12/11 02:49:53;;;;;;;1.30;0.32;;;;;;;;;;5092441;28;20036;-88
2021/12/11 02:52:28;;;;;;;1.77;0.30;;;;;;;;;;5102418;28;20491;-87
2021/12/11 02:54:56;;;;;;;0.70;0.20;;;;;;;;;;5104143;27;20310;-79
2021/12/11 02:57:36;;;;;;;1.85;0.40;;;;;;;;;;5095813;28;20061;-88
2021/12/11 03:00:09;;;;;;;1.65;0.32;;;;;;;;;;5103917;27;20031;-84
2021/12/11 03:02:36;;;;;;;0.77;0.20;;;;;;;;;;5092743;28;20366;-87
2021/12/11 03:05:10;;;;;;;0.40;0.30;;;;;;;;;;5097811;28;20032;-78
2021/12/11 03:07:39;;;;;;;2.17;0.40;;;;;;;;;;5103014;28;20023;-88
2021/12/11 03:10:10;;;;;;;1.60;0.43;;;;;;;;;;5102742;28;20024;-86
2021/12/11 03:12:36;;;;;;;1.75;0.60;;;;;;;;;;5093297;28;20016;-86
2021/12/11 03:15:03;;;;;;;1.48;0.30;;;;;;;;;;5102665;28;20046;-84
2021/12/11 03:17:30;;;;;;;1.25;0.40;;;;;;;;;;5102300;28;20456;-87
2021/12/11 03:19:56;;;;;;;2.15;0.30;;;;;;;;;;5093803;28;20028;-73
2021/12/11 03:22:27;;;;;;;1.50;0.40;;;;;;;;;;5092283;28;20019;-77
2021/12/11 03:24:53;;;;;;;3.92;0.60;;;;;;;;;;5103074;28;20031;-76
2021/12/11 03:27:20;;;;;;;5.63;0.52;;;;;;;;;;5102475;28;20110;-83
2021/12/11 03:29:47;;;;;;;3.95;0.50;;;;;;;;;;5094898;28;20277;-82
2021/12/11 03:32:13;;;;;;;6.93;1.08;;;;;;;;;;5098269;28;20022;-73
2021/12/11 03:34:40;;;;;;;6.22;0.70;;;;;;;;;;5090446;28;20496;-76
2021/12/11 03:37:08;;;;;;;6.25;0.77;;;;;;;;;;5083026;28;20285;-87
2021/12/11 03:39:39;;;;;;;6.53;1.02;;;;;;;;;;5102046;28;20039;-87
2021/12/11 03:42:10;;;;;;;4.20;0.90;;;;;;;;;;5099506;28;20415;-74
2021/12/11 03:44:37;;;;;;;6.05;0.70;;;;;;;;;;5092548;28;20380;-88
2021/12/11 03:47:08;;;;;;;2.05;0.65;;;;;;;;;;5087588;28;20111;-88
2021/12/11 03:49:34;;;;;;;6.88;1.10;;;;;;;;;;5101652;28;20035;-81
2021/12/11 03:52:00;;;;;;;4.45;1.02;;;;;;;;;;5102218;28;20023;-86
2021/12/11 03:54:30;;;;;;;6.00;1.08;;;;;;;;;;5100961;28;20043;-82
2021/12/11 03:56:57;;;;;;;4.13;1.15;;;;;;;;;;5095234;28;20035;-77
2021/12/11 03:59:24;;;;;;;4.43;1.02;;;;;;;;;;5102103;28;20066;-83
2021/12/11 04:01:56;;;;;;;9.57;1.17;;;;;;;;;;5101756;28;20031;-84
2021/12/11 04:04:25;;;;;;;10.70;1.20;;;;;;;;;;5097907;28;20040;-77
2021/12/11 04:06:51;;;;;;;5.15;1.40;;;;;;;;;;5100388;28;20036;-76
2021/12/11 04:09:19;;;;;;;8.00;1.27;;;;;;;;;;5102086;28;20060;-75
2021/12/11 04:11:46;;;;;;;5.60;1.23;;;;;;;;;;5093126;28;20039;-87
2021/12/11 04:14:14;;;;;;;7.32;1.90;;;;;;;;;;5101368;28;20035;-84
2021/12/11 04:16:41;;;;;;;6.45;1.52;;;;;;;;;;5101819;28;20114;-84
2021/12/11 04:19:07;;;;;;;8.23;1.90;;;;;;;;;;5095080;28;20194;-72
2021/12/11 04:21:33;;;;;;;6.63;1.60;;;;;;;;;;5101551;28;20031;-86
2021/12/11 04:24:00;;;;;;;10.55;1.92;;;;;;;;;;5098505;28;20593;-82
2021/12/11 04:26:27;;;;;;;10.63;2.38;;;;;;;;;;5098528;28;20042;-85
2021/12/11 04:28:53;;;;;;;9.77;2.15;;;;;;;;;;5105893;28;20248;-86
2021/12/11 04:31:24;;;;;;;18.15;2.90;;;;;;;;;;5091450;28;20028;-79
2021/12/11 04:33:52;;;;;;;16.88;2.80;;;;;;;;;;5097099;28;20479;-83
2021/12/11 04:36:22;;;;;;;15.18;2.47;;;;;;;;;;5095170;28;20027;-84
2021/12/11 04:38:49;;;;;;;14.30;2.15;;;;;;;;;;5090880;28;20058;-84
2021/12/11 04:41:18;;;;;;;14.10;3.10;;;;;;;;;;5097808;28;20124;-84
2021/12/11 04:43:46;;;;;;;15.32;2.53;;;;;;;;;;5092922;28;20089;-83
2021/12/11 04:46:12;;;;;;;10.13;2.13;;;;;;;;;;5095855;28;20023;-78
2021/12/11 04:49:01;;;;;;;11.30;2.30;;;;;;;;;;5092687;28;20059;-87
2021/12/11 04:51:37;;;;;;;11.75;1.77;;;;;;;;;;5095353;28;20024;-88
2021/12/11 04:54:25;;;;;;;7.00;0.82;;;;;;;;;;5099888;28;20276;-84
2021/12/11 05:10:40;;;;;;;9.88;1.92;;;;;;;;;;5094827;28;20092;-84
2021/12/11 05:13:06;;;;;;;8.98;1.52;;;;;;;;;;5101034;28;20094;-86
2021/12/11 05:15:38;;;;;;;7.82;1.60;;;;;;;;;;5100703;28;20039;-86
2021/12/11 05:18:09;;;;;;;9.25;2.20;;;;;;;;;;5083368;28;20026;-85
2021/12/11 05:20:35;;;;;;;8.17;2.10;;;;;;;;;;5090560;28;20505;-79
2021/12/11 05:23:01;;;;;;;6.57;1.52;;;;;;;;;;5093336;28;20024;-85
2021/12/11 05:25:28;;;;;;;7.80;2.20;;;;;;;;;;5098886;28;20037;-86
2021/12/11 05:27:54;;;;;;;13.88;2.00;;;;;;;;;;5102753;28;20042;-81
2021/12/11 05:30:24;;;;;;;8.50;1.65;;;;;;;;;;5096745;28;20020;-87
2021/12/11 05:32:51;;;;;;;12.05;2.20;;;;;;;;;;5105430;28;20668;-85
2021/12/11 05:35:17;;;;;;;8.00;1.20;;;;;;;;;;5103658;28;20039;-85
2021/12/11 05:37:44;;;;;;;9.85;2.10;;;;;;;;;;5104659;28;20486;-78
2021/12/11 05:40:13;;;;;;;8.48;1.70;;;;;;;;;;5106093;28;20049;-84
2021/12/11 05:42:39;;;;;;;6.55;1.30;;;;;;;;;;5092721;28;20080;-85
2021/12/11 05:45:06;;;;;;;7.43;2.05;;;;;;;;;;5085343;28;20515;-80
2021/12/11 05:47:32;;;;;;;6.93;1.75;;;;;;;;;;5101580;28;20024;-84
2021/12/11 05:49:58;;;;;;;15.88;2.20;;;;;;;;;;5076446;28;20022;-85
2021/12/11 05:52:26;;;;;;;9.93;2.15;;;;;;;;;;5100634;28;20043;-81
2021/12/11 05:54:52;;;;;;;12.40;2.20;;;;;;;;;;5088671;28;20057;-84
2021/12/11 05:57:21;;;;;;;11.93;1.83;;;;;;;;;;5094798;28;20027;-86
2021/12/11 05:59:49;;;;;;;11.35;2.05;;;;;;;;;;5096202;28;20032;-87
2021/12/11 06:02:15;;;;;;;6.60;1.42;;;;;;;;;;5099284;28;20057;-84
2021/12/11 06:04:42;;;;;;;4.25;1.42;;;;;;;;;;5089631;28;20055;-82
2021/12/11 06:07:10;;;;;;;6.28;1.08;;;;;;;;;;5077276;28;20027;-86
2021/12/11 06:09:37;;;;;;;10.60;1.48;;;;;;;;;;5090696;28;20043;-75
2021/12/11 06:12:06;;;;;;;19.45;2.60;;;;;;;;;;5096185;28;20030;-80
2021/12/11 06:14:32;;;;;;;11.05;1.92;;;;;;;;;;5089415;28;20091;-81
2021/12/11 06:17:00;;;;;;;9.18;1.90;;;;;;;;;;5093152;28;20043;-84
2021/12/11 06:19:27;;;;;;;10.48;1.80;;;;;;;;;;5089000;28;20071;-80
2021/12/11 06:21:53;;;;;;;17.33;2.53;;;;;;;;;;5092232;28;20024;-81
2021/12/11 06:24:20;;;;;;;9.13;2.10;;;;;;;;;;5090974;28;20028;-80
2021/12/11 06:26:47;;;;;;;10.95;1.63;;;;;;;;;;5096149;28;20031;-77
2021/12/11 06:29:13;;;;;;;14.20;2.10;;;;;;;;;;5093807;28;20036;-74
2021/12/11 06:31:39;;;;;;;10.63;1.88;;;;;;;;;;5094507;28;20410;-73
2021/12/11 06:34:05;;;;;;;15.60;2.15;;;;;;;;;;5092498;28;20258;-78
2021/12/11 06:36:32;;;;;;;10.95;2.13;;;;;;;;;;5099453;28;20023;-78
2021/12/11 06:39:00;;;;;;;15.93;2.35;;;;;;;;;;5091338;28;20020;-83
2021/12/11 06:41:29;;;;;;;11.82;2.30;;;;;;;;;;5089195;28;20028;-83
2021/12/11 06:43:55;;;;;;;11.93;2.67;;;;;;;;;;5091243;28;20023;-72
2021/12/11 06:46:21;;;;;;;18.35;2.42;;;;;;;;;;5096909;28;20118;-79
2021/12/11 06:48:47;;;;;;;15.07;2.88;;;;;;;;;;5102278;28;20054;-79
2021/12/11 06:51:13;;;;;;;13.20;3.67;;;;;;;;;;5081168;28;20104;-80
2021/12/11 06:53:45;;;;;;;12.35;2.40;;;;;;;;;;5097033;28;20028;-72
2021/12/11 06:56:12;;;;;;;16.08;1.98;;;;;;;;;;5092749;28;20077;-75
2021/12/11 06:58:38;;;;;;;12.50;3.22;;;;;;;;;;5094868;28;20036;-75
2021/12/11 07:01:07;;;;;;;10.27;2.17;;;;;;;;;;5094769;28;20032;-75
2021/12/11 07:03:33;;;;;;;9.25;1.75;;;;;;;;;;5097692;28;20056;-76
2021/12/11 07:05:59;;;;;;;9.02;1.15;;;;;;;;;;5074519;28;20032;-74
2021/12/11 07:08:27;;;;;;;3.78;1.50;;;;;;;;;;5079001;28;20038;-73
2021/12/11 07:10:53;;;;;;;5.65;1.02;;;;;;;;;;5093843;28;20030;-73
2021/12/11 07:13:20;;;;;;;10.90;1.55;;;;;;;;;;5095632;28;20028;-75
2021/12/11 07:15:46;;;;;;;6.75;1.73;;;;;;;;;;5094515;28;20036;-73
2021/12/11 07:18:12;;;;;;;6.43;1.27;;;;;;;;;;5096977;28;20394;-75
2021/12/11 07:20:38;;;;;;;5.78;1.20;;;;;;;;;;5097326;28;20227;-72
2021/12/11 07:23:05;;;;;;;10.20;1.75;;;;;;;;;;5095166;28;20068;-72
2021/12/11 07:25:34;;;;;;;5.15;1.45;;;;;;;;;;5093614;28;20492;-76
2021/12/11 07:28:03;;;;;;;7.68;1.10;;;;;;;;;;5095589;28;20038;-75
2021/12/11 07:30:31;;;;;;;4.28;1.30;;;;;;;;;;5093692;28;20660;-77
2021/12/11 07:32:58;;;;;;;6.85;1.33;;;;;;;;;;5090391;28;20036;-76
2021/12/11 07:35:25;;;;;;;4.38;1.00;;;;;;;;;;5092870;28;20118;-75
2021/12/11 07:37:52;;;;;;;2.72;1.00;;;;;;;;;;5089987;28;20032;-75
2021/12/11 07:40:24;;;;;;;11.25;1.20;;;;;;;;;;5089577;28;20262;-76
2021/12/11 07:42:51;;;;;;;9.52;2.05;;;;;;;;;;5078157;28;20023;-73
2021/12/11 07:45:18;;;;;;;8.65;1.13;;;;;;;;;;5091291;28;20032;-75
2021/12/11 07:47:44;;;;;;;6.47;1.35;;;;;;;;;;5093131;28;20027;-74
2021/12/11 07:50:11;;;;;;;12.27;2.10;;;;;;;;;;5090229;28;20143;-77
2021/12/11 07:52:38;;;;;;;11.45;1.70;;;;;;;;;;5091891;28;20596;-72
2021/12/11 07:55:05;;;;;;;10.85;1.67;;;;;;;;;;5093865;28;20039;-75
2021/12/11 07:57:31;;;;;;;5.63;1.42;;;;;;;;;;5090369;28;20501;-74
2021/12/11 07:59:57;;;;;;;6.97;1.98;;;;;;;;;;5090664;28;20036;-76
2021/12/11 08:02:24;;;;;;;11.25;1.70;;;;;;;;;;5089669;28;20089;-76
2021/12/11 08:04:50;;;;;;;12.63;2.42;;;;;;;;;;5090130;28;20395;-73
2021/12/11 08:07:16;;;;;;;10.10;1.67;;;;;;;;;;5095826;28;20080;-76
2021/12/11 08:09:42;;;;;;;7.03;1.77;;;;;;;;;;5090493;28;20031;-77
2021/12/11 08:12:09;;;;;;;15.15;3.95;;;;;;;;;;5089983;28;20110;-74
2021/12/11 08:14:35;;;;;;;11.88;2.00;;;;;;;;;;5090682;28;20119;-73
2021/12/11 08:17:05;;;;;;;13.80;2.10;;;;;;;;;;5081194;28;20270;-76
2021/12/11 08:19:31;;;;;;;13.38;4.22;;;;;;;;;;5094087;28;20031;-77
2021/12/11 08:21:59;;;;;;;7.95;1.92;;;;;;;;;;5095577;27;20115;-75
2021/12/11 08:24:28;;;;;;;7.05;1.75;;;;;;;;;;5094171;28;20352;-73
2021/12/11 08:26:55;;;;;;;7.30;2.28;;;;;;;;;;5089354;28;20084;-71
2021/12/11 08:29:22;;;;;;;8.63;1.80;;;;;;;;;;5091650;28;20590;-74
2021/12/11 08:31:50;;;;;;;8.68;2.20;;;;;;;;;;5093772;28;20024;-72
2021/12/11 08:34:17;;;;;;;9.13;2.05;;;;;;;;;;5091649;28;20113;-76
2021/12/11 08:36:43;;;;;;;9.73;1.75;;;;;;;;;;5093905;28;20515;-72
2021/12/11 08:39:13;;;;;;;10.40;3.53;;;;;;;;;;5086409;28;20039;-73
2021/12/11 08:41:39;;;;;;;8.95;1.88;;;;;;;;;;5094673;28;20024;-72
2021/12/11 08:44:11;;;;;;;10.48;1.58;;;;;;;;;;5087598;28;20028;-73
2021/12/11 08:46:38;;;;;;;11.23;1.80;;;;;;;;;;5091074;28;20027;-77
2021/12/11 08:49:06;;;;;;;11.80;2.20;;;;;;;;;;5069565;28;20039;-73
2021/12/11 08:51:41;;;;;;;7.15;2.25;;;;;;;;;;5092150;28;20104;-74
2021/12/11 08:54:07;;;;;;;12.40;2.13;;;;;;;;;;5088859;28;20114;-73
2021/12/11 08:56:35;;;;;;;12.68;3.00;;;;;;;;;;5088263;28;20042;-73
2021/12/11 08:59:03;;;;;;;16.38;3.05;;;;;;;;;;5091436;28;20028;-74
2021/12/11 09:01:32;;;;;;;17.83;4.18;;;;;;;;;;5091002;28;20122;-73
2021/12/11 09:04:05;;;;;;;18.52;3.40;;;;;;;;;;5092383;28;20084;-73
2021/12/11 09:06:36;;;;;;;13.73;3.28;;;;;;;;;;5087764;28;20031;-73
2021/12/11 09:09:06;;;;;;;18.25;3.63;;;;;;;;;;5091528;28;20226;-75
2021/12/11 09:11:41;;;;;;;19.27;2.92;;;;;;;;;;5090128;28;20417;-74
2021/12/11 09:14:10;;;;;;;17.77;3.28;;;;;;;;;;5091405;28;20024;-72
2021/12/11 09:16:42;;;;;;;23.52;4.70;;;;;;;;;;5094017;28;20047;-75
2021/12/11 09:19:15;;;;;;;17.83;3.35;;;;;;;;;;5090687;28;20043;-75
2021/12/11 09:21:41;;;;;;;;;;;;;;;;;;5091397;28;20028;-73
2021/12/11 09:24:28;;;;;;;23.85;3.17;;;;;;;;;;5080637;28;19915;-73
2021/12/11 09:26:56;;;;;;;17.40;3.38;;;;;;;;;;5090480;28;20085;-72
2021/12/11 09:29:26;;;;;;;13.52;3.15;;;;;;;;;;5090500;28;20020;-75
2021/12/11 09:31:58;;;;;;;16.38;3.25;;;;;;;;;;5091657;28;20023;-73
2021/12/11 09:34:28;;;;;;;19.77;3.10;;;;;;;;;;5091446;28;20038;-76
2021/12/11 09:36:57;;;;;;;19.20;3.10;;;;;;;;;;5087981;28;20049;-73
2021/12/11 09:39:26;;;;;;;12.77;3.25;;;;;;;;;;5089232;28;20031;-73
2021/12/11 09:41:52;;;;;;;15.90;3.95;;;;;;;;;;5089684;28;20422;-74
2021/12/11 09:44:29;;;;;;;21.83;4.80;;;;;;;;;;5088305;28;20028;-76
2021/12/11 09:47:15;;;;;;;16.10;4.38;;;;;;;;;;5089720;28;20031;-76
2021/12/11 09:49:44;;;;;;;14.80;2.72;;;;;;;;;;5090135;28;20026;-75
2021/12/11 09:52:17;;;;;;;14.07;3.25;;;;;;;;;;5089306;28;20020;-77
2021/12/11 09:54:45;;;;;;;15.27;2.88;;;;;;;;;;5091524;28;20043;-76
2021/12/11 09:57:14;;;;;;;16.20;4.25;;;;;;;;;;5089331;28;20028;-77
2021/12/11 09:59:40;;;;;;;10.15;2.78;;;;;;;;;;5087763;28;20020;-76
2021/12/11 10:02:10;;;;;;;18.77;3.25;;;;;;;;;;5089451;28;20036;-77
2021/12/11 10:04:52;;;;;;;14.02;3.22;;;;;;;;;;5090633;28;20121;-76
2021/12/11 10:07:29;;;;;;;15.32;2.95;;;;;;;;;;5088527;28;20499;-74
2021/12/11 10:09:58;;;;;;;13.45;2.53;;;;;;;;;;5095139;28;20167;-76
2021/12/11 10:12:30;;;;;;;8.32;1.63;;;;;;;;;;5088192;28;20348;-77
2021/12/11 10:14:56;;;;;;;;;;;;;;;;;;5087526;28;20683;-76
2021/12/11 10:17:29;;;;;;;10.25;1.80;;;;;;;;;;5090809;28;19951;-77
2021/12/11 10:19:57;;;;;;;6.00;1.48;;;;;;;;;;5088687;28;20020;-76
2021/12/11 10:22:25;;;;;;;9.02;1.77;;;;;;;;;;5087624;28;20024;-77
2021/12/11 10:24:52;;;;;;;3.58;0.73;;;;;;;;;;5090966;28;20054;-76
2021/12/11 10:27:22;;;;;;;5.60;1.10;;;;;;;;;;5088619;28;20483;-75
2021/12/11 10:29:49;;;;;;;8.07;1.77;;;;;;;;;;5088058;28;20142;-76
2021/12/11 10:32:17;;;;;;;4.97;1.58;;;;;;;;;;5089059;28;20196;-74
2021/12/11 10:34:45;;;;;;;9.40;1.80;;;;;;;;;;5086698;28;20047;-76
2021/12/11 10:37:17;;;;;;;8.73;1.67;;;;;;;;;;5092645;28;20115;-78
2021/12/11 10:39:44;;;;;;;;;;;;;;;;;;5091716;28;20032;-75
2021/12/11 10:42:10;;;;;;;13.32;2.72;;;;;;;;;;5091706;28;20287;-78
2021/12/11 10:44:40;;;;;;;5.85;1.60;;;;;;;;;;5092376;28;20039;-76
2021/12/11 10:47:10;;;;;;;7.93;2.03;;;;;;;;;;5094436;28;20105;-77
2021/12/11 10:49:36;;;;;;;8.88;2.50;;;;;;;;;;5092450;28;20131;-76
2021/12/11 10:52:12;;;;;;;5.57;1.40;;;;;;;;;;5094606;28;20174;-72
2021/12/11 10:54:38;;;;;;;4.93;0.98;;;;;;;;;;5092093;28;20074;-76
2021/12/11 10:57:04;;;;;;;5.32;0.98;;;;;;;;;;5094635;28;20447;-75
2021/12/11 10:59:32;;;;;;;5.65;1.42;;;;;;;;;;5094017;28;20141;-81
2021/12/11 11:02:04;;;;;;;20.60;2.35;;;;;;;;;;5091076;28;20545;-79
2021/12/11 11:04:36;;;;;;;7.88;1.63;;;;;;;;;;5091571;28;20054;-75
2021/12/11 11:07:04;;;;;;;11.35;1.67;;;;;;;;;;5096863;28;20038;-76
2021/12/11 11:09:30;;;;;;;11.13;2.30;;;;;;;;;;5094153;28;20042;-74
2021/12/11 11:11:58;;;;;;;11.02;2.00;;;;;;;;;;5093622;28;20360;-76
2021/12/11 11:14:24;;;;;;;14.38;2.55;;;;;;;;;;5093361;28;20083;-75
2021/12/11 11:16:54;;;;;;;9.45;2.10;;;;;;;;;;5072160;28;20019;-73
2021/12/11 11:19:21;;;;;;;12.52;2.40;;;;;;;;;;5099561;27;20028;-75
2021/12/11 11:21:49;;;;;;;8.80;2.30;;;;;;;;;;5093665;27;20039;-77
2021/12/11 11:24:15;;;;;;;11.70;2.70;;;;;;;;;;5092295;28;20070;-77
2021/12/11 11:26:43;;;;;;;12.45;2.42;;;;;;;;;;5097077;28;20504;-77
2021/12/11 11:29:11;;;;;;;9.10;2.88;;;;;;;;;;5102849;27;20015;-73
2021/12/11 11:31:38;;;;;;;11.18;2.17;;;;;;;;;;5096647;27;20599;-77
2021/12/11 11:34:06;;;;;;;9.60;1.75;;;;;;;;;;5083204;28;20019;-76
2021/12/11 11:36:32;;;;;;;5.13;1.42;;;;;;;;;;5094097;27;20106;-74
2021/12/11 11:39:01;;;;;;;6.82;1.58;;;;;;;;;;5098292;27;20387;-74
2021/12/11 11:41:30;;;;;;;8.95;1.92;;;;;;;;;;5093897;28;20032;-75
2021/12/11 11:43:58;;;;;;;6.97;1.40;;;;;;;;;;5093151;27;20028;-74
2021/12/11 11:46:24;;;;;;;5.93;1.33;;;;;;;;;;5090151;27;20027;-75
2021/12/11 11:48:52;;;;;;;14.73;2.10;;;;;;;;;;5096523;27;20455;-76
2021/12/11 11:51:21;;;;;;;7.38;2.20;;;;;;;;;;5090202;28;20024;-76
2021/12/11 11:53:48;;;;;;;13.43;3.33;;;;;;;;;;5098510;27;20499;-75
2021/12/11 11:56:16;;;;;;;14.07;2.95;;;;;;;;;;5092272;27;20178;-76
2021/12/11 11:58:43;;;;;;;16.23;3.03;;;;;;;;;;5100572;27;20047;-75
2021/12/11 12:01:12;;;;;;;13.80;2.65;;;;;;;;;;5106319;27;20023;-76
2021/12/11 12:03:38;;;;;;;10.73;2.88;;;;;;;;;;5103373;27;20023;-77
2021/12/11 12:06:10;;;;;;;8.13;2.60;;;;;;;;;;5095839;27;20035;-73
2021/12/11 12:08:37;;;;;;;16.60;3.00;;;;;;;;;;5079258;28;20504;-74
2021/12/11 12:11:04;;;;;;;9.48;2.38;;;;;;;;;;5089696;28;20106;-75
2021/12/11 12:13:30;;;;;;;8.77;3.20;;;;;;;;;;5096644;27;20027;-75
2021/12/11 12:16:01;;;;;;;14.70;3.40;;;;;;;;;;5099892;27;20036;-75
2021/12/11 12:18:28;;;;;;;10.40;2.85;;;;;;;;;;5100993;27;20032;-73
2021/12/11 12:20:55;;;;;;;9.48;3.17;;;;;;;;;;5098263;27;20408;-76
2021/12/11 12:23:22;;;;;;;11.73;2.70;;;;;;;;;;5098292;28;20507;-76
2021/12/11 12:25:49;;;;;;;11.45;2.65;;;;;;;;;;5090097;28;20028;-75
2021/12/11 12:28:16;;;;;;;10.60;2.75;;;;;;;;;;5092230;28;20027;-76
2021/12/11 12:30:44;;;;;;;13.30;2.72;;;;;;;;;;5090514;28;20092;-75
2021/12/11 12:33:11;;;;;;;7.85;2.25;;;;;;;;;;5089829;28;20338;-73
2021/12/11 12:35:38;;;;;;;9.75;2.33;;;;;;;;;;5090853;27;20038;-76
2021/12/11 12:38:05;;;;;;;8.65;1.90;;;;;;;;;;5097534;28;20023;-76
2021/12/11 12:40:38;;;;;;;12.48;2.78;;;;;;;;;;5093561;27;20432;-76
2021/12/11 12:43:11;;;;;;;12.57;2.60;;;;;;;;;;5095576;28;20195;-77
2021/12/11 12:45:39;;;;;;;13.30;2.42;;;;;;;;;;5097270;27;20025;-76
2021/12/11 12:48:08;;;;;;;11.35;2.65;;;;;;;;;;5098320;27;20035;-76
2021/12/11 12:50:37;;;;;;;10.15;2.58;;;;;;;;;;5091486;28;20028;-76
2021/12/11 12:53:04;;;;;;;9.10;2.25;;;;;;;;;;5090585;27;20028;-76
2021/12/11 12:55:30;;;;;;;18.75;3.25;;;;;;;;;;5076168;28;20046;-76
2021/12/11 12:57:58;;;;;;;11.18;2.53;;;;;;;;;;5099711;27;20114;-76
2021/12/11 13:00:27;;;;;;;11.90;2.30;;;;;;;;;;5097996;27;20066;-76
2021/12/11 13:02:56;;;;;;;16.33;2.88;;;;;;;;;;5071817;28;20032;-76
2021/12/11 13:05:31;;;;;;;8.88;3.22;;;;;;;;;;5093957;28;20055;-75
2021/12/11 13:08:01;;;;;;;7.75;2.22;;;;;;;;;;5087404;28;20024;-75
2021/12/11 13:10:30;;;;;;;11.75;2.58;;;;;;;;;;5097147;27;20445;-75
2021/12/11 13:12:57;;;;;;;9.27;1.90;;;;;;;;;;5087505;28;20043;-75
2021/12/11 13:15:32;;;;;;;12.68;3.40;;;;;;;;;;5101730;27;20688;-76
2021/12/11 13:17:59;;;;;;;13.52;2.20;;;;;;;;;;5095646;27;20019;-76
2021/12/11 13:20:34;;;;;;;10.50;2.28;;;;;;;;;;5092919;28;20031;-76
2021/12/11 13:23:01;;;;;;;14.88;2.25;;;;;;;;;;5088407;28;20028;-76
2021/12/11 13:25:41;;;;;;;13.52;2.75;;;;;;;;;;5092618;28;20023;-74
2021/12/11 13:28:09;;;;;;;10.55;2.67;;;;;;;;;;5088522;28;20029;-76
2021/12/11 13:30:41;;;;;;;10.90;3.40;;;;;;;;;;5093034;27;20748;-75
2021/12/11 13:33:07;;;;;;;;;;;;;;;;;;5092313;28;20430;-77
2021/12/11 13:35:37;;;;;;;17.20;2.90;;;;;;;;;;5099404;27;19930;-77
2021/12/11 13:38:05;;;;;;;11.13;1.92;;;;;;;;;;5086251;28;20042;-75
2021/12/11 13:40:32;;;;;;;8.77;2.10;;;;;;;;;;5095178;27;20109;-76
2021/12/11 13:42:58;;;;;;;12.88;2.30;;;;;;;;;;5088565;28;20020;-76
2021/12/11 13:45:30;;;;;;;15.57;3.85;;;;;;;;;;5093332;27;20036;-74
2021/12/11 13:47:56;;;;;;;16.88;3.60;;;;;;;;;;5089974;28;20408;-75
2021/12/11 13:50:30;;;;;;;11.23;2.72;;;;;;;;;;5091715;28;20024;-74
2021/12/11 13:52:57;;;;;;;13.30;3.13;;;;;;;;;;5096219;28;20562;-76
2021/12/11 13:55:23;;;;;;;18.23;2.92;;;;;;;;;;5088268;28;20038;-75
2021/12/11 13:57:50;;;;;;;13.05;2.97;;;;;;;;;;5094718;27;20424;-76
2021/12/11 14:00:21;;;;;;;16.27;3.30;;;;;;;;;;5095643;28;20031;-76
2021/12/11 14:02:48;;;;;;;14.43;3.63;;;;;;;;;;5104232;27;20441;-76
2021/12/11 14:05:14;;;;;;;15.20;3.50;;;;;;;;;;5089968;28;20047;-75
2021/12/11 14:07:40;;;;;;;8.15;2.63;;;;;;;;;;5092806;28;20511;-75
2021/12/11 14:10:19;;;;;;;14.98;3.88;;;;;;;;;;5089000;27;20102;-75
2021/12/11 14:12:46;;;;;;;18.30;3.53;;;;;;;;;;5097666;27;20103;-75
2021/12/11 14:15:12;;;;;;;11.27;3.17;;;;;;;;;;5101290;27;20031;-75
2021/12/11 14:17:39;;;;;;;21.88;4.63;;;;;;;;;;5098351;27;20107;-74
2021/12/11 14:20:06;;;;;;;15.35;3.72;;;;;;;;;;5098706;28;20030;-75
2021/12/11 14:22:34;;;;;;;21.13;3.28;;;;;;;;;;5098256;28;20023;-73
2021/12/11 14:25:00;;;;;;;10.98;2.75;;;;;;;;;;5096526;28;20038;-75
2021/12/11 14:27:26;;;;;;;12.93;2.95;;;;;;;;;;5106115;27;20019;-73
2021/12/11 14:29:55;;;;;;;10.98;2.60;;;;;;;;;;5094281;28;20062;-75
2021/12/11 14:32:24;;;;;;;17.38;3.50;;;;;;;;;;5094459;28;20020;-75
2021/12/11 14:34:50;;;;;;;15.07;3.05;;;;;;;;;;5097507;28;20111;-77
2021/12/11 14:37:16;;;;;;;17.60;2.65;;;;;;;;;;5097570;27;20051;-73
2021/12/11 14:39:47;;;;;;;12.57;3.30;;;;;;;;;;5104223;27;20360;-75
2021/12/11 14:42:22;;;;;;;14.30;3.20;;;;;;;;;;5104567;27;20024;-75
2021/12/11 14:44:49;;;;;;;18.63;3.55;;;;;;;;;;5102238;27;20022;-77
2021/12/11 14:47:16;;;;;;;7.20;1.70;;;;;;;;;;5106042;27;20392;-75
2021/12/11 14:49:43;;;;;;;8.90;1.60;;;;;;;;;;5094085;28;20124;-76
2021/12/11 14:52:11;;;;;;;8.23;1.88;;;;;;;;;;5105761;27;20046;-75
2021/12/11 14:54:38;;;;;;;12.43;2.30;;;;;;;;;;5094126;28;20122;-75
2021/12/11 14:57:04;;;;;;;12.70;2.08;;;;;;;;;;5093496;28;20024;-75
2021/12/11 14:59:33;;;;;;;9.45;2.28;;;;;;;;;;5094908;28;20035;-75
2021/12/11 15:02:01;;;;;;;14.35;2.88;;;;;;;;;;5096610;28;20020;-75
2021/12/11 15:04:33;;;;;;;15.02;2.88;;;;;;;;;;5095027;28;20067;-75